Pays
Station

 

Conditions  météo  pour  Joensuu  -  Finlande    Finlande

  
12 °C
    
 
 

METAR pour Joensuu :

EFJO 201020Z AUTO 14006KT 110V180 9999 -RA OVC075 12/08 Q1020

 

Voici le bulletin pour Joensuu - Finlande.
 
Le bulletin a été fait il y a 23 minutes, à 10:20 UTC .
Le vent soufflait à la vitesse de 3.1 mètres par seconde de Sud-est (140°), variant entre Est/Sud-est (110°) et Sud (180°).
 
La température était de 12 °C, avec un point de rosée à 8 °C.
La pression atmosphérique était de 1020 hPa.
L'humidité relative était de 76.5%.
 
Le ciel était nuageux à partir d'une hauteur de 2286 mètres
 
La visibilité globale était de supérieure à 10 kilomètres.
 
Actuellement léger/legère pluie.

 
 
 

Pays :   A   B   C   D   E   F   G   H   I   J   K   L   M   N   O   P   Q   R   S   T   U   V   W   Y   Z

 

Partenaires :  Info Météo avec Met'info
Météo Marine avec MeteoMarine.net
Infos Site  |  Infos Légales  |  Crédits  |  Confidentialité
Contactez-nous  |  Ajouter aux favoris
© 2013-2019 METAR - Tous droits réservés